Time;durP1;ratioP1;P1;durP2;ratioP2;P2;SDS_P1;SDS_P2;PMS_P1;PMS_P2;Temp;Humidity;BMP_temperature;BMP_pressure;BME280_temperature;BME280_humidity;BME280_pressure;Samples;Min_cycle;Max_cycle;Signal;HPM_P1;HPM_P2
2023/12/25 00:03:31;;;;;;;43.38;26.65;;;;;;;;;;10320760;28;20915;-89
2023/12/25 00:08:35;;;;;;;45.17;27.33;;;;;;;;;;10321821;28;20788;-89
2023/12/25 00:13:38;;;;;;;41.50;25.70;;;;;;;;;;10318054;28;20475;-90
2023/12/25 00:18:40;;;;;;;43.88;26.10;;;;;;;;;;10317598;28;20522;-90
2023/12/25 00:23:44;;;;;;;48.03;28.05;;;;;;;;;;10321340;28;20539;-90
2023/12/25 00:28:46;;;;;;;47.40;28.10;;;;;;;;;;10320419;28;20417;-90
2023/12/25 00:33:48;;;;;;;48.15;28.77;;;;;;;;;;10320273;28;20887;-89
2023/12/25 00:38:52;;;;;;;46.43;27.20;;;;;;;;;;10322936;28;20844;-90
2023/12/25 00:43:55;;;;;;;43.45;25.88;;;;;;;;;;10322481;28;20461;-90
2023/12/25 00:48:57;;;;;;;40.88;25.48;;;;;;;;;;10319059;28;20468;-90
2023/12/25 00:54:01;;;;;;;42.13;25.47;;;;;;;;;;10322060;28;20417;-90
2023/12/25 00:59:03;;;;;;;41.60;24.73;;;;;;;;;;10319732;28;20460;-90
2023/12/25 01:04:06;;;;;;;45.15;25.20;;;;;;;;;;10323008;28;20416;-90
2023/12/25 01:09:09;;;;;;;39.25;25.45;;;;;;;;;;10318459;28;20421;-90
2023/12/25 01:14:12;;;;;;;41.87;25.00;;;;;;;;;;10322538;28;20432;-89
2023/12/25 01:19:14;;;;;;;43.22;25.08;;;;;;;;;;10318924;28;20493;-88
2023/12/25 01:24:18;;;;;;;37.67;23.50;;;;;;;;;;10317889;28;20498;-87
2023/12/25 01:29:20;;;;;;;36.92;22.52;;;;;;;;;;10304772;28;20460;-88
2023/12/25 01:34:23;;;;;;;34.95;21.58;;;;;;;;;;10313476;28;21058;-88
2023/12/25 01:39:26;;;;;;;37.15;22.13;;;;;;;;;;10319033;28;20476;-89
2023/12/25 01:44:29;;;;;;;36.13;21.50;;;;;;;;;;10324187;28;20491;-89
2023/12/25 01:49:32;;;;;;;31.05;19.48;;;;;;;;;;10319354;28;20405;-89
2023/12/25 01:54:37;;;;;;;32.50;19.95;;;;;;;;;;10320980;28;20490;-88
2023/12/25 01:59:40;;;;;;;30.40;18.50;;;;;;;;;;10323000;28;20930;-88
2023/12/25 02:04:43;;;;;;;29.25;18.10;;;;;;;;;;10324412;28;20445;-89
2023/12/25 02:09:51;;;;;;;27.40;17.47;;;;;;;;;;10320548;28;20487;-88
2023/12/25 02:14:53;;;;;;;29.13;17.43;;;;;;;;;;10319924;28;20408;-88
2023/12/25 02:19:56;;;;;;;26.05;16.58;;;;;;;;;;10317193;28;20450;-88
2023/12/25 02:25:03;;;;;;;28.40;17.08;;;;;;;;;;10316751;28;20455;-87
2023/12/25 02:30:08;;;;;;;28.55;17.48;;;;;;;;;;10313818;28;20656;-89
2023/12/25 02:35:12;;;;;;;24.50;16.20;;;;;;;;;;10319292;28;20898;-88
2023/12/25 02:40:14;;;;;;;28.48;17.10;;;;;;;;;;10309599;28;20456;-88
2023/12/25 02:45:18;;;;;;;29.90;17.70;;;;;;;;;;10318345;28;20467;-88
2023/12/25 02:50:20;;;;;;;27.90;16.77;;;;;;;;;;10327648;28;20412;-89
2023/12/25 02:55:23;;;;;;;26.23;16.30;;;;;;;;;;10327003;28;20589;-89
2023/12/25 03:00:26;;;;;;;27.23;17.27;;;;;;;;;;10329941;28;20424;-88
2023/12/25 03:05:29;;;;;;;32.17;19.05;;;;;;;;;;10328999;28;20535;-88
2023/12/25 03:10:31;;;;;;;27.13;18.00;;;;;;;;;;10322122;28;20995;-88
2023/12/25 03:15:36;;;;;;;28.73;18.10;;;;;;;;;;10328687;28;20472;-88
2023/12/25 03:20:38;;;;;;;29.30;18.42;;;;;;;;;;10325893;28;20422;-88
2023/12/25 03:25:40;;;;;;;33.30;19.03;;;;;;;;;;10327771;28;20483;-89
2023/12/25 03:30:44;;;;;;;30.98;19.10;;;;;;;;;;10326612;28;20636;-88
2023/12/25 03:35:46;;;;;;;27.60;17.73;;;;;;;;;;10327933;28;20446;-90
2023/12/25 03:40:50;;;;;;;29.70;18.42;;;;;;;;;;10315695;28;20500;-88
2023/12/25 03:45:53;;;;;;;27.88;17.95;;;;;;;;;;10328350;28;20508;-88
2023/12/25 03:50:56;;;;;;;28.33;17.23;;;;;;;;;;10326085;28;20409;-88
2023/12/25 03:56:02;;;;;;;29.38;18.17;;;;;;;;;;10326802;28;20998;-88
2023/12/25 04:01:06;;;;;;;27.30;17.88;;;;;;;;;;10310319;28;20565;-88
2023/12/25 04:06:08;;;;;;;28.23;17.35;;;;;;;;;;10319440;28;20440;-89
2023/12/25 04:11:19;;;;;;;24.52;15.65;;;;;;;;;;10318159;28;20475;-89
2023/12/25 04:16:24;;;;;;;26.60;17.63;;;;;;;;;;10319754;28;20565;-89
2023/12/25 04:21:28;;;;;;;28.20;17.52;;;;;;;;;;10319306;28;21136;-88
2023/12/25 04:26:30;;;;;;;26.07;17.00;;;;;;;;;;10319106;28;20453;-89
2023/12/25 04:31:34;;;;;;;25.58;16.48;;;;;;;;;;10319335;28;20455;-89
2023/12/25 04:36:36;;;;;;;27.20;16.47;;;;;;;;;;10323100;28;20987;-89
2023/12/25 04:41:39;;;;;;;23.15;14.80;;;;;;;;;;10319850;28;20489;-89
2023/12/25 04:46:42;;;;;;;23.92;15.80;;;;;;;;;;10325431;28;20983;-89
2023/12/25 04:51:45;;;;;;;24.63;16.00;;;;;;;;;;10318383;28;20539;-89
2023/12/25 04:56:48;;;;;;;25.60;15.15;;;;;;;;;;10321493;28;20531;-89
2023/12/25 05:01:53;;;;;;;22.63;14.05;;;;;;;;;;10318678;28;20504;-89
2023/12/25 05:06:56;;;;;;;21.97;13.83;;;;;;;;;;10322793;28;20456;-89
2023/12/25 05:11:58;;;;;;;20.90;14.15;;;;;;;;;;10317486;28;20449;-89
2023/12/25 05:17:02;;;;;;;23.42;14.57;;;;;;;;;;10318353;28;20419;-86
2023/12/25 05:22:05;;;;;;;23.58;14.55;;;;;;;;;;10321031;28;20541;-88
2023/12/25 05:27:08;;;;;;;20.70;14.60;;;;;;;;;;10319862;28;20942;-88
2023/12/25 05:32:12;;;;;;;24.80;14.38;;;;;;;;;;10324798;28;20495;-89
2023/12/25 05:37:14;;;;;;;20.45;13.30;;;;;;;;;;10324244;28;20409;-89
2023/12/25 05:42:16;;;;;;;23.77;14.73;;;;;;;;;;10320095;28;20463;-88
2023/12/25 05:47:20;;;;;;;22.67;14.23;;;;;;;;;;10318955;28;20453;-89
2023/12/25 05:52:22;;;;;;;23.00;14.30;;;;;;;;;;10320158;28;20475;-90
2023/12/25 05:57:25;;;;;;;22.37;13.80;;;;;;;;;;10323556;28;20487;-89
2023/12/25 06:02:29;;;;;;;20.48;13.70;;;;;;;;;;10320743;28;20509;-89
2023/12/25 06:07:31;;;;;;;21.75;13.25;;;;;;;;;;10318834;28;20481;-88
2023/12/25 06:12:33;;;;;;;22.05;12.90;;;;;;;;;;10316536;28;20530;-89
2023/12/25 06:17:37;;;;;;;27.20;14.88;;;;;;;;;;10323882;28;20422;-89
2023/12/25 06:22:40;;;;;;;25.40;15.05;;;;;;;;;;10320559;28;20499;-89
2023/12/25 06:27:42;;;;;;;23.92;14.32;;;;;;;;;;10330588;28;20414;-89
2023/12/25 06:32:46;;;;;;;24.40;14.10;;;;;;;;;;10327880;28;20913;-89
2023/12/25 06:37:48;;;;;;;24.80;13.60;;;;;;;;;;10331587;28;20527;-89
2023/12/25 06:42:51;;;;;;;22.58;14.13;;;;;;;;;;10325659;28;20465;-89
2023/12/25 06:47:54;;;;;;;22.67;14.27;;;;;;;;;;10329205;28;20467;-89
2023/12/25 06:52:57;;;;;;;25.90;14.43;;;;;;;;;;10323529;28;20426;-88
2023/12/25 06:57:59;;;;;;;25.20;15.53;;;;;;;;;;10329383;28;20510;-89
2023/12/25 07:03:04;;;;;;;24.13;14.75;;;;;;;;;;10325600;28;20456;-88
2023/12/25 07:08:07;;;;;;;23.92;15.63;;;;;;;;;;10323932;28;20481;-89
2023/12/25 07:13:09;;;;;;;25.98;15.32;;;;;;;;;;10325180;28;20493;-88
2023/12/25 07:18:13;;;;;;;25.47;14.73;;;;;;;;;;10328422;28;20425;-88
2023/12/25 07:23:17;;;;;;;22.42;13.93;;;;;;;;;;10327129;28;20497;-88
2023/12/25 07:28:19;;;;;;;23.52;14.50;;;;;;;;;;10328412;28;20474;-88
2023/12/25 07:33:23;;;;;;;22.97;14.60;;;;;;;;;;10327320;28;20788;-89
2023/12/25 07:38:25;;;;;;;23.80;15.05;;;;;;;;;;10313167;28;20565;-89
2023/12/25 07:43:27;;;;;;;23.53;14.37;;;;;;;;;;10313263;28;20457;-88
2023/12/25 07:48:31;;;;;;;26.10;15.43;;;;;;;;;;10314907;28;20562;-88
2023/12/25 07:53:34;;;;;;;25.53;15.67;;;;;;;;;;10308945;28;20525;-88
2023/12/25 07:58:36;;;;;;;30.70;16.35;;;;;;;;;;10314304;28;20547;-88
2023/12/25 08:03:40;;;;;;;26.13;16.27;;;;;;;;;;10304385;28;20532;-88
2023/12/25 08:08:44;;;;;;;24.38;16.35;;;;;;;;;;10309411;28;20526;-88
2023/12/25 08:13:47;;;;;;;24.00;16.08;;;;;;;;;;10300470;28;20523;-89
2023/12/25 08:18:50;;;;;;;26.30;17.60;;;;;;;;;;10317114;28;20462;-94
2023/12/25 08:23:53;;;;;;;31.77;21.70;;;;;;;;;;10312154;28;20452;-94
2023/12/25 08:28:55;;;;;;;32.20;19.70;;;;;;;;;;10322003;28;20428;-93
2023/12/25 08:33:59;;;;;;;25.85;17.63;;;;;;;;;;10327470;28;20813;-89
2023/12/25 08:39:01;;;;;;;28.25;17.20;;;;;;;;;;10313458;28;20492;-91
2023/12/25 08:44:04;;;;;;;25.85;16.70;;;;;;;;;;10327168;28;20518;-91
2023/12/25 08:49:08;;;;;;;28.20;17.20;;;;;;;;;;10312967;28;20413;-91
2023/12/25 08:54:11;;;;;;;27.43;16.57;;;;;;;;;;10309864;28;20447;-86
2023/12/25 08:59:13;;;;;;;28.63;17.48;;;;;;;;;;10305766;28;20517;-90
2023/12/25 09:04:17;;;;;;;32.00;19.50;;;;;;;;;;10316321;28;20497;-91
2023/12/25 09:09:19;;;;;;;31.58;19.33;;;;;;;;;;10310232;28;20861;-91
2023/12/25 09:14:22;;;;;;;33.30;20.10;;;;;;;;;;10315530;28;20460;-89
2023/12/25 09:19:25;;;;;;;29.60;17.92;;;;;;;;;;10311951;28;20456;-91
2023/12/25 09:24:28;;;;;;;29.67;18.20;;;;;;;;;;10305876;28;20868;-91
2023/12/25 09:29:30;;;;;;;31.70;19.77;;;;;;;;;;10301363;28;20449;-87
2023/12/25 09:34:34;;;;;;;34.33;19.80;;;;;;;;;;10306066;28;20418;-94
2023/12/25 09:39:36;;;;;;;33.20;19.60;;;;;;;;;;10319172;28;20448;-92
2023/12/25 09:44:39;;;;;;;37.00;20.58;;;;;;;;;;10310300;28;20936;-93
2023/12/25 09:49:46;;;;;;;33.40;19.40;;;;;;;;;;10320820;28;20903;-94
2023/12/25 09:54:48;;;;;;;33.03;19.65;;;;;;;;;;10318888;28;20815;-94
2023/12/25 09:59:52;;;;;;;34.83;20.20;;;;;;;;;;10332067;28;20405;-95
2023/12/25 10:04:56;;;;;;;40.67;20.67;;;;;;;;;;10333660;28;20903;-95
2023/12/25 10:32:23;;;;;;;40.33;22.63;;;;;;;;;;12764682;22;2022684;-87
2023/12/25 10:37:25;;;;;;;40.13;22.13;;;;;;;;;;12850021;22;20403;-85
2023/12/25 10:42:28;;;;;;;39.28;22.08;;;;;;;;;;12847836;22;20382;-83
2023/12/25 10:47:32;;;;;;;40.38;21.63;;;;;;;;;;12847845;22;20381;-83
2023/12/25 10:52:35;;;;;;;38.57;22.00;;;;;;;;;;12849313;22;20442;-84
2023/12/25 10:57:38;;;;;;;39.53;22.88;;;;;;;;;;12847348;22;20426;-82
2023/12/25 11:02:43;;;;;;;41.30;22.45;;;;;;;;;;12849168;22;20442;-84
2023/12/25 11:07:45;;;;;;;42.63;22.43;;;;;;;;;;12849034;22;20378;-83
2023/12/25 11:12:50;;;;;;;41.97;23.10;;;;;;;;;;12848587;23;20487;-83
2023/12/25 11:17:54;;;;;;;41.17;24.13;;;;;;;;;;12841739;23;20403;-83
2023/12/25 11:22:57;;;;;;;47.75;24.40;;;;;;;;;;12843855;22;20393;-84
2023/12/25 11:28:03;;;;;;;46.60;24.63;;;;;;;;;;12828164;22;20378;-84
2023/12/25 11:33:09;;;;;;;42.05;24.67;;;;;;;;;;12832112;22;20416;-84
2023/12/25 11:38:31;;;;;;;44.60;25.93;;;;;;;;;;12835641;23;20366;-84
2023/12/25 11:43:34;;;;;;;47.38;26.88;;;;;;;;;;12844030;23;20455;-84
2023/12/25 11:48:38;;;;;;;57.28;29.92;;;;;;;;;;12844063;23;20370;-84
2023/12/25 11:53:40;;;;;;;48.38;25.92;;;;;;;;;;12842720;23;20367;-82
2023/12/25 11:58:43;;;;;;;51.83;27.42;;;;;;;;;;12842035;22;20378;-83
2023/12/25 12:03:49;;;;;;;48.85;27.35;;;;;;;;;;12840339;23;20455;-82
2023/12/25 12:08:51;;;;;;;49.58;27.92;;;;;;;;;;12842723;23;20396;-86
2023/12/25 12:13:54;;;;;;;48.25;26.73;;;;;;;;;;12843294;23;20830;-86
2023/12/25 12:18:57;;;;;;;47.67;24.63;;;;;;;;;;12842359;23;20370;-86
2023/12/25 12:24:00;;;;;;;47.97;25.60;;;;;;;;;;12841574;23;20439;-87
2023/12/25 12:29:02;;;;;;;52.50;29.07;;;;;;;;;;12845815;22;20370;-85
2023/12/25 12:34:06;;;;;;;46.77;26.23;;;;;;;;;;12843743;23;20415;-86
2023/12/25 12:39:09;;;;;;;50.65;28.02;;;;;;;;;;12841420;23;20433;-86
2023/12/25 12:44:12;;;;;;;44.50;25.27;;;;;;;;;;12842068;22;20390;-85
2023/12/25 12:49:17;;;;;;;50.50;26.38;;;;;;;;;;12846123;23;20370;-86
2023/12/25 12:54:19;;;;;;;47.63;26.85;;;;;;;;;;12843477;23;20358;-87
2023/12/25 12:59:22;;;;;;;47.78;27.35;;;;;;;;;;12843096;23;20392;-87
2023/12/25 13:04:26;;;;;;;68.82;40.58;;;;;;;;;;12841314;23;20382;-86
2023/12/25 13:09:28;;;;;;;59.47;35.90;;;;;;;;;;12863439;23;20985;-86
2023/12/25 13:14:30;;;;;;;51.97;27.00;;;;;;;;;;12840763;23;20366;-88
2023/12/25 13:19:44;;;;;;;42.97;25.90;;;;;;;;;;12844166;23;20428;-86
2023/12/25 13:24:48;;;;;;;43.05;26.25;;;;;;;;;;12842569;23;20435;-87
2023/12/25 13:29:50;;;;;;;43.77;25.63;;;;;;;;;;12842501;23;20405;-86
2023/12/25 13:34:54;;;;;;;44.93;26.20;;;;;;;;;;12841880;23;20450;-88
2023/12/25 13:40:00;;;;;;;45.85;26.95;;;;;;;;;;12841161;23;20431;-91
2023/12/25 13:45:02;;;;;;;47.15;27.35;;;;;;;;;;12840632;23;20386;-82
2023/12/25 13:50:07;;;;;;;47.40;26.60;;;;;;;;;;12842551;23;20374;-82
2023/12/25 13:55:10;;;;;;;47.30;27.90;;;;;;;;;;12840657;23;20425;-82
2023/12/25 14:00:14;;;;;;;46.80;27.00;;;;;;;;;;12840408;22;20379;-80
2023/12/25 14:05:18;;;;;;;51.10;29.08;;;;;;;;;;12841437;23;20458;-82
2023/12/25 14:10:21;;;;;;;53.65;30.10;;;;;;;;;;12839846;23;20370;-82
2023/12/25 14:15:23;;;;;;;53.17;30.63;;;;;;;;;;12839101;23;20374;-81
2023/12/25 14:20:27;;;;;;;55.33;30.42;;;;;;;;;;12840628;23;20392;-80
2023/12/25 14:25:29;;;;;;;51.03;30.70;;;;;;;;;;12840075;23;20386;-79
2023/12/25 14:30:32;;;;;;;49.97;30.85;;;;;;;;;;12839167;23;20411;-81
2023/12/25 14:35:35;;;;;;;54.27;32.87;;;;;;;;;;12839172;23;20370;-83
2023/12/25 14:40:38;;;;;;;47.45;29.70;;;;;;;;;;12841711;23;20435;-83
2023/12/25 14:45:40;;;;;;;52.90;29.65;;;;;;;;;;12841531;23;20390;-83
2023/12/25 14:50:44;;;;;;;49.13;30.23;;;;;;;;;;12840878;23;20431;-83
2023/12/25 14:55:46;;;;;;;52.25;31.27;;;;;;;;;;12837341;23;20400;-83
2023/12/25 15:00:49;;;;;;;59.40;33.95;;;;;;;;;;12841053;23;20366;-81
2023/12/25 15:05:52;;;;;;;53.17;32.17;;;;;;;;;;12840252;23;20416;-81
2023/12/25 15:10:55;;;;;;;46.50;29.00;;;;;;;;;;12840488;22;20374;-81
2023/12/25 15:15:57;;;;;;;47.63;30.23;;;;;;;;;;12840734;23;20366;-80
2023/12/25 15:21:01;;;;;;;47.60;29.87;;;;;;;;;;12841577;23;20847;-79
2023/12/25 15:26:03;;;;;;;56.85;34.03;;;;;;;;;;12841729;22;20435;-82
2023/12/25 15:31:07;;;;;;;53.25;33.13;;;;;;;;;;12840635;23;20950;-83
2023/12/25 15:36:13;;;;;;;51.55;31.13;;;;;;;;;;12841444;23;20395;-82
2023/12/25 15:41:15;;;;;;;51.45;30.92;;;;;;;;;;12839646;22;20366;-83
2023/12/25 15:46:18;;;;;;;48.67;31.27;;;;;;;;;;12852861;23;20390;-84
2023/12/25 15:51:23;;;;;;;47.45;31.17;;;;;;;;;;12841755;23;20362;-84
2023/12/25 15:56:28;;;;;;;61.40;35.77;;;;;;;;;;12842218;22;20419;-81
2023/12/25 16:01:30;;;;;;;88.00;47.07;;;;;;;;;;12842148;23;20400;-83
2023/12/25 16:06:34;;;;;;;73.03;43.43;;;;;;;;;;12840097;23;20390;-82
2023/12/25 16:11:36;;;;;;;66.47;40.25;;;;;;;;;;12840900;23;20371;-82
2023/12/25 16:16:38;;;;;;;60.88;35.80;;;;;;;;;;12840744;23;20370;-82
2023/12/25 16:21:42;;;;;;;60.35;36.22;;;;;;;;;;12837970;23;20439;-82
2023/12/25 16:26:45;;;;;;;60.08;36.40;;;;;;;;;;12838454;23;20870;-82
2023/12/25 16:31:47;;;;;;;61.45;37.58;;;;;;;;;;12831919;23;20419;-83
2023/12/25 16:36:51;;;;;;;58.33;35.85;;;;;;;;;;12827732;22;20374;-82
2023/12/25 16:41:53;;;;;;;60.08;37.08;;;;;;;;;;12829121;22;20374;-83
2023/12/25 16:46:56;;;;;;;68.10;40.60;;;;;;;;;;12830628;22;20386;-82
2023/12/25 16:51:59;;;;;;;65.57;40.72;;;;;;;;;;12830610;22;20438;-83
2023/12/25 16:57:02;;;;;;;65.33;39.57;;;;;;;;;;12828577;22;20386;-82
2023/12/25 17:02:04;;;;;;;62.90;38.78;;;;;;;;;;12829963;22;20386;-82
2023/12/25 17:07:09;;;;;;;64.65;40.72;;;;;;;;;;12829325;22;20390;-81
2023/12/25 17:12:12;;;;;;;70.83;41.00;;;;;;;;;;12829405;22;21205;-82
2023/12/25 17:17:15;;;;;;;65.35;40.13;;;;;;;;;;12830830;22;20420;-82
2023/12/25 17:22:19;;;;;;;62.53;41.13;;;;;;;;;;12829101;22;20386;-80
2023/12/25 17:27:21;;;;;;;67.60;39.50;;;;;;;;;;12828832;22;20416;-82
2023/12/25 17:32:23;;;;;;;61.22;38.28;;;;;;;;;;12829874;23;20407;-80
2023/12/25 17:37:29;;;;;;;63.65;39.80;;;;;;;;;;12830147;22;20378;-83
2023/12/25 17:42:32;;;;;;;63.40;40.95;;;;;;;;;;12829725;22;20403;-82
2023/12/25 17:47:35;;;;;;;63.83;41.75;;;;;;;;;;12828428;22;20394;-79
2023/12/25 17:52:38;;;;;;;62.80;40.35;;;;;;;;;;12825082;22;20386;-83
2023/12/25 17:57:41;;;;;;;62.30;39.13;;;;;;;;;;12827743;22;20849;-82
2023/12/25 18:02:43;;;;;;;60.93;39.33;;;;;;;;;;12828294;22;20446;-81
2023/12/25 18:07:47;;;;;;;63.35;40.15;;;;;;;;;;12829926;22;20390;-82
2023/12/25 18:12:49;;;;;;;65.20;41.83;;;;;;;;;;12825548;23;20370;-82
2023/12/25 18:17:52;;;;;;;62.13;41.05;;;;;;;;;;12830807;22;20903;-84
2023/12/25 18:22:56;;;;;;;69.27;41.73;;;;;;;;;;12835382;23;20962;-82
2023/12/25 18:27:59;;;;;;;68.35;43.10;;;;;;;;;;12823252;23;20455;-82
2023/12/25 18:33:01;;;;;;;70.95;43.42;;;;;;;;;;12818239;22;20386;-83
2023/12/25 18:38:06;;;;;;;64.00;42.67;;;;;;;;;;12817813;22;20454;-82
2023/12/25 18:43:08;;;;;;;63.60;41.92;;;;;;;;;;12817118;22;21381;-83
2023/12/25 18:48:11;;;;;;;66.75;42.20;;;;;;;;;;12824284;22;20454;-82
2023/12/25 18:53:14;;;;;;;66.55;41.25;;;;;;;;;;12824415;22;20382;-83
2023/12/25 18:58:17;;;;;;;64.78;41.88;;;;;;;;;;12820417;22;20387;-83
2023/12/25 19:03:19;;;;;;;70.15;42.15;;;;;;;;;;12823374;22;20581;-82
2023/12/25 19:08:24;;;;;;;64.95;41.55;;;;;;;;;;12820948;22;20869;-83
2023/12/25 19:13:26;;;;;;;63.65;41.10;;;;;;;;;;12823849;22;20546;-82
2023/12/25 19:18:28;;;;;;;71.22;42.45;;;;;;;;;;12822283;22;20416;-83
2023/12/25 19:23:32;;;;;;;89.43;53.03;;;;;;;;;;12822381;23;20585;-83
2023/12/25 19:28:34;;;;;;;81.40;47.03;;;;;;;;;;12822781;22;20447;-83
2023/12/25 19:33:36;;;;;;;78.80;46.83;;;;;;;;;;12821271;22;20411;-84
2023/12/25 19:38:40;;;;;;;76.80;44.50;;;;;;;;;;12823728;22;20378;-82
2023/12/25 19:43:42;;;;;;;70.65;43.60;;;;;;;;;;12822926;22;20443;-81
2023/12/25 19:48:45;;;;;;;72.70;45.80;;;;;;;;;;12823049;22;20390;-82
2023/12/25 19:53:50;;;;;;;69.68;44.95;;;;;;;;;;12822756;22;20462;-80
2023/12/25 19:58:52;;;;;;;73.30;46.17;;;;;;;;;;12823251;22;20918;-83
2023/12/25 20:03:54;;;;;;;82.27;47.97;;;;;;;;;;12819791;22;20382;-82
2023/12/25 20:08:58;;;;;;;75.20;46.30;;;;;;;;;;12827618;22;20386;-81
2023/12/25 20:14:01;;;;;;;73.35;45.92;;;;;;;;;;12831418;22;20383;-82
2023/12/25 20:19:03;;;;;;;70.53;45.03;;;;;;;;;;12831133;22;20466;-83
2023/12/25 20:24:08;;;;;;;74.20;46.63;;;;;;;;;;12833530;23;20447;-83
2023/12/25 20:29:11;;;;;;;71.65;45.92;;;;;;;;;;12833811;22;20386;-83
2023/12/25 20:34:14;;;;;;;73.72;47.00;;;;;;;;;;12830450;22;20426;-84
2023/12/25 20:39:18;;;;;;;79.85;47.40;;;;;;;;;;12832416;22;20386;-83
2023/12/25 20:44:20;;;;;;;76.97;45.93;;;;;;;;;;12833837;22;20382;-83
2023/12/25 20:49:26;;;;;;;79.60;47.40;;;;;;;;;;12832156;22;20390;-83
2023/12/25 20:54:32;;;;;;;74.75;47.20;;;;;;;;;;12831487;22;20423;-82
2023/12/25 20:59:35;;;;;;;78.72;47.75;;;;;;;;;;12832120;22;20382;-83
2023/12/25 21:04:37;;;;;;;86.27;51.63;;;;;;;;;;12826614;22;20606;-82
2023/12/25 21:09:41;;;;;;;81.53;49.63;;;;;;;;;;12829816;22;20447;-83
2023/12/25 21:14:44;;;;;;;84.20;50.08;;;;;;;;;;12831193;22;20386;-83
2023/12/25 21:19:46;;;;;;;85.20;49.80;;;;;;;;;;12831477;22;20382;-83
2023/12/25 21:24:52;;;;;;;84.35;52.08;;;;;;;;;;12831137;22;20358;-83
2023/12/25 21:30:00;;;;;;;80.13;50.03;;;;;;;;;;12832426;22;20439;-81
2023/12/25 21:35:02;;;;;;;77.43;47.17;;;;;;;;;;12833324;22;20431;-82
2023/12/25 21:40:07;;;;;;;80.47;47.73;;;;;;;;;;12830429;22;20443;-83
2023/12/25 21:45:09;;;;;;;77.70;47.97;;;;;;;;;;12829554;22;20447;-82
2023/12/25 21:50:11;;;;;;;76.63;48.15;;;;;;;;;;12829202;22;20382;-82
2023/12/25 21:55:15;;;;;;;75.40;49.00;;;;;;;;;;12836915;22;20451;-82
2023/12/25 22:00:18;;;;;;;79.20;47.33;;;;;;;;;;12829445;22;20415;-82
2023/12/25 22:05:20;;;;;;;81.32;48.47;;;;;;;;;;12825851;22;20378;-81
2023/12/25 22:10:24;;;;;;;78.85;49.33;;;;;;;;;;12829350;22;20854;-82
2023/12/25 22:15:26;;;;;;;81.10;49.50;;;;;;;;;;12828850;22;20418;-81
2023/12/25 22:20:29;;;;;;;79.23;49.10;;;;;;;;;;12827449;22;20455;-82
2023/12/25 22:25:32;;;;;;;73.73;48.10;;;;;;;;;;12828733;22;20404;-83
2023/12/25 22:30:35;;;;;;;78.18;48.65;;;;;;;;;;12830921;22;20381;-83
2023/12/25 22:35:37;;;;;;;79.07;48.85;;;;;;;;;;12828153;22;20447;-85
2023/12/25 22:40:41;;;;;;;84.15;50.92;;;;;;;;;;12828718;22;20449;-84
2023/12/25 22:45:44;;;;;;;82.82;51.58;;;;;;;;;;12826261;22;20382;-84
2023/12/25 22:50:46;;;;;;;94.50;54.90;;;;;;;;;;12822027;22;20387;-85
2023/12/25 22:55:50;;;;;;;86.97;54.92;;;;;;;;;;12832097;22;20424;-84
2023/12/25 23:00:52;;;;;;;91.90;54.65;;;;;;;;;;12829769;22;20439;-84
2023/12/25 23:05:55;;;;;;;90.13;53.13;;;;;;;;;;12827218;22;20450;-84
2023/12/25 23:10:59;;;;;;;83.93;50.40;;;;;;;;;;12827480;22;20436;-85
2023/12/25 23:16:02;;;;;;;84.88;50.97;;;;;;;;;;12824622;22;20408;-82
2023/12/25 23:21:05;;;;;;;80.68;49.90;;;;;;;;;;12829235;22;20447;-83
2023/12/25 23:26:14;;;;;;;79.47;48.70;;;;;;;;;;12830373;23;20390;-83
2023/12/25 23:31:17;;;;;;;82.60;47.97;;;;;;;;;;12837138;22;20374;-84
2023/12/25 23:36:19;;;;;;;80.13;48.78;;;;;;;;;;12835307;23;20822;-83
2023/12/25 23:41:25;;;;;;;78.60;49.25;;;;;;;;;;12836395;23;20894;-84
2023/12/25 23:46:28;;;;;;;74.82;46.42;;;;;;;;;;12830015;22;20444;-80
2023/12/25 23:51:30;;;;;;;74.57;46.15;;;;;;;;;;12833340;23;20358;-82
2023/12/25 23:56:35;;;;;;;78.18;46.80;;;;;;;;;;12834445;23;20784;-84
